Time;durP1;ratioP1;P1;durP2;ratioP2;P2;SDS_P1;SDS_P2;PMS_P1;PMS_P2;Temp;Humidity;BMP_temperature;BMP_pressure;BME280_temperature;BME280_humidity;BME280_pressure;Samples;Min_cycle;Max_cycle;Signal;HPM_P1;HPM_P2
2022/03/29 03:11:25;;;;;;;9.00;5.50;;;8.60;80.30;;;;;;6087333;29;20297;-79
2022/03/29 03:38:44;;;;;;;15.02;5.72;;;8.50;80.90;;;;;;6086302;29;20100;-80
2022/03/29 03:41:48;;;;;;;13.48;4.82;;;8.50;81.10;;;;;;6098678;29;20052;-80
2022/03/29 03:44:49;;;;;;;12.93;6.85;;;8.50;81.10;;;;;;6153720;29;20062;-80
2022/03/29 03:47:51;;;;;;;10.60;6.43;;;8.40;81.20;;;;;;6188417;28;20066;-79
2022/03/29 03:50:53;;;;;;;16.85;7.15;;;8.40;81.60;;;;;;6210030;28;20129;-80
2022/03/29 03:53:56;;;;;;;11.82;6.00;;;8.40;81.60;;;;;;6211216;28;20495;-81
2022/03/29 03:56:58;;;;;;;11.52;6.15;;;8.50;82.00;;;;;;6212459;28;20106;-79
2022/03/29 04:00:01;;;;;;;14.50;5.55;;;8.60;82.30;;;;;;6211427;28;20054;-80
2022/03/29 04:03:03;;;;;;;13.50;5.90;;;8.30;82.10;;;;;;6211271;28;20520;-80
2022/03/29 04:06:04;;;;;;;20.77;6.80;;;8.30;82.30;;;;;;6211564;28;20097;-81
2022/03/29 04:09:08;;;;;;;13.50;6.00;;;8.30;82.50;;;;;;6210893;28;20054;-80
2022/03/29 04:12:10;;;;;;;14.10;6.18;;;8.50;82.90;;;;;;6209609;28;20070;-80
2022/03/29 04:15:12;;;;;;;19.05;5.97;;;8.20;82.90;;;;;;6211143;28;20055;-80
2022/03/29 04:18:14;;;;;;;12.10;6.53;;;8.20;82.70;;;;;;6210652;28;20050;-80
2022/03/29 04:21:15;;;;;;;11.45;5.93;;;8.10;82.90;;;;;;6210651;28;20150;-79
2022/03/29 04:24:18;;;;;;;16.20;5.82;;;8.10;83.10;;;;;;6220076;28;20050;-79
2022/03/29 04:27:20;;;;;;;14.13;7.70;;;8.10;83.10;;;;;;6218845;28;20077;-80
2022/03/29 04:30:22;;;;;;;16.88;5.95;;;8.30;83.20;;;;;;6206862;28;20522;-80
2022/03/29 04:33:24;;;;;;;19.20;6.18;;;8.10;83.10;;;;;;6208899;28;20105;-80
2022/03/29 04:36:26;;;;;;;14.23;6.97;;;8.20;83.60;;;;;;6233261;28;20046;-80
2022/03/29 04:39:30;;;;;;;14.30;6.97;;;8.20;83.30;;;;;;6256926;28;20164;-80
2022/03/29 04:42:34;;;;;;;9.98;5.78;;;8.40;83.30;;;;;;6257829;28;20077;-81
2022/03/29 04:45:36;;;;;;;10.38;5.93;;;8.40;83.20;;;;;;6257914;28;20045;-81
2022/03/29 04:48:38;;;;;;;11.60;6.80;;;8.20;83.20;;;;;;6254020;28;20049;-80
2022/03/29 04:51:40;;;;;;;17.33;6.93;;;8.20;83.20;;;;;;6253887;28;20051;-80
2022/03/29 04:54:43;;;;;;;13.60;6.53;;;8.20;83.40;;;;;;6253474;28;20048;-80
2022/03/29 04:57:47;;;;;;;18.17;6.53;;;8.40;83.50;;;;;;6253863;28;20056;-80
2022/03/29 05:00:49;;;;;;;12.60;6.90;;;8.10;83.70;;;;;;6254906;28;20080;-80
2022/03/29 05:03:50;;;;;;;15.27;7.20;;;8.10;83.60;;;;;;6256911;28;20110;-79
2022/03/29 05:06:52;;;;;;;17.48;7.13;;;8.10;83.70;;;;;;6256234;28;20049;-80
2022/03/29 05:09:55;;;;;;;12.07;6.82;;;8.10;83.50;;;;;;6254684;28;20045;-80
2022/03/29 05:12:57;;;;;;;13.40;6.97;;;8.10;83.30;;;;;;6253734;28;20128;-80
2022/03/29 05:15:59;;;;;;;17.65;6.95;;;8.10;83.30;;;;;;6254657;28;20145;-81
2022/03/29 05:19:01;;;;;;;18.77;6.65;;;8.10;83.30;;;;;;6253663;28;20060;-80
2022/03/29 05:22:03;;;;;;;17.73;6.95;;;8.10;83.10;;;;;;6254766;28;20057;-80
2022/03/29 05:25:07;;;;;;;13.45;7.22;;;8.20;83.00;;;;;;6255218;28;20045;-81
2022/03/29 05:28:09;;;;;;;15.25;6.18;;;8.20;83.00;;;;;;6254565;28;20045;-80
2022/03/29 05:31:10;;;;;;;11.80;7.07;;;8.20;83.10;;;;;;6255009;28;20057;-80
2022/03/29 05:34:13;;;;;;;18.17;5.80;;;8.20;83.10;;;;;;6254584;28;20068;-81
2022/03/29 05:37:15;;;;;;;16.05;8.63;;;8.30;83.10;;;;;;6246522;28;20107;-81
2022/03/29 05:40:18;;;;;;;16.80;6.63;;;8.40;83.10;;;;;;6254261;28;20487;-81
2022/03/29 05:43:20;;;;;;;11.55;5.80;;;8.50;82.70;;;;;;6255817;28;20050;-81
2022/03/29 05:49:41;;;;;;;13.25;6.53;;;8.60;82.80;;;;;;6255425;28;20546;-81
2022/03/29 05:52:43;;;;;;;13.13;7.35;;;8.60;82.40;;;;;;6234669;28;20042;-81
2022/03/29 05:55:48;;;;;;;25.27;7.38;;;8.80;82.30;;;;;;6231317;28;20129;-81
2022/03/29 05:58:50;;;;;;;13.50;5.18;;;8.90;82.20;;;;;;6206992;28;20077;-81
2022/03/29 06:01:52;;;;;;;10.63;7.00;;;9.10;82.20;;;;;;6222251;28;20038;-81
2022/03/29 06:04:54;;;;;;;13.75;6.65;;;9.10;81.70;;;;;;6231592;28;20058;-81
2022/03/29 06:07:56;;;;;;;19.58;6.85;;;9.30;81.60;;;;;;6232047;28;20053;-81
2022/03/29 06:11:00;;;;;;;19.67;6.70;;;9.40;81.50;;;;;;6233392;28;20109;-80
2022/03/29 06:14:02;;;;;;;17.92;5.97;;;9.40;81.10;;;;;;6235371;28;20073;-81
2022/03/29 06:17:06;;;;;;;19.95;7.55;;;9.60;81.00;;;;;;6232391;28;20120;-81
2022/03/29 06:20:10;;;;;;;19.98;7.07;;;9.80;80.60;;;;;;6233489;28;20050;-80
2022/03/29 06:23:11;;;;;;;10.52;5.97;;;9.90;80.30;;;;;;6234787;28;20508;-80
2022/03/29 06:26:14;;;;;;;14.43;6.72;;;10.00;80.00;;;;;;6237188;28;20124;-80
2022/03/29 06:29:16;;;;;;;15.68;7.03;;;10.20;79.80;;;;;;6236775;28;20054;-80
2022/03/29 06:32:19;;;;;;;15.38;6.40;;;10.40;79.50;;;;;;6237444;28;20050;-78
2022/03/29 06:35:22;;;;;;;14.10;6.95;;;10.60;79.10;;;;;;6242359;28;20109;-79
2022/03/29 06:38:24;;;;;;;17.73;6.65;;;10.70;78.80;;;;;;6241672;28;20049;-79
2022/03/29 06:41:28;;;;;;;11.40;6.40;;;10.90;78.60;;;;;;6238905;28;20049;-80
2022/03/29 06:44:33;;;;;;;17.90;6.65;;;11.20;78.30;;;;;;6241137;28;20737;-79
2022/03/29 06:47:35;;;;;;;16.98;6.88;;;11.40;77.80;;;;;;6241796;28;20054;-80
2022/03/29 06:50:36;;;;;;;17.13;6.82;;;11.60;77.20;;;;;;6240876;28;20129;-80
2022/03/29 06:53:39;;;;;;;16.30;7.50;;;11.90;76.50;;;;;;6239174;28;20136;-80
2022/03/29 06:56:42;;;;;;;12.10;6.72;;;12.20;76.00;;;;;;6240847;28;20133;-80
2022/03/29 06:59:44;;;;;;;14.18;7.15;;;12.40;75.40;;;;;;6240777;28;20145;-80
2022/03/29 07:02:46;;;;;;;16.45;6.18;;;12.70;74.50;;;;;;6239219;28;20519;-79
2022/03/29 07:05:48;;;;;;;13.40;6.30;;;13.10;74.40;;;;;;6240458;28;20061;-81
2022/03/29 07:12:07;;;;;;;14.43;6.22;;;13.60;72.40;;;;;;6214336;28;20140;-80
2022/03/29 07:15:11;;;;;;;15.23;6.38;;;13.90;71.30;;;;;;6237487;28;20056;-81
2022/03/29 07:18:12;;;;;;;18.00;6.28;;;14.20;70.40;;;;;;6238048;28;20101;-79
2022/03/29 07:21:14;;;;;;;11.82;6.20;;;14.50;69.20;;;;;;6237939;28;20073;-80
2022/03/29 07:24:16;;;;;;;19.60;7.45;;;14.80;68.20;;;;;;6239126;28;20057;-81
2022/03/29 07:27:19;;;;;;;15.63;7.00;;;15.00;67.10;;;;;;6238748;28;20049;-80
2022/03/29 07:30:21;;;;;;;41.63;10.93;;;15.30;66.20;;;;;;6236202;28;20544;-79
2022/03/29 07:33:23;;;;;;;13.20;6.70;;;15.60;66.10;;;;;;6238957;28;20069;-79
2022/03/29 07:36:25;;;;;;;25.60;7.82;;;15.90;66.00;;;;;;6239035;28;20138;-80
2022/03/29 07:39:27;;;;;;;18.25;6.80;;;16.20;65.30;;;;;;6238704;28;20071;-80
2022/03/29 07:42:31;;;;;;;20.40;7.35;;;16.40;64.60;;;;;;6240025;28;20216;-81
2022/03/29 07:45:33;;;;;;;16.38;8.48;;;16.70;63.80;;;;;;6239713;28;20064;-80
2022/03/29 07:48:36;;;;;;;19.52;6.50;;;17.00;62.30;;;;;;6237139;28;20046;-83
2022/03/29 07:51:38;;;;;;;17.38;6.80;;;17.30;60.50;;;;;;6241014;28;20057;-81
2022/03/29 07:54:40;;;;;;;13.40;5.90;;;17.60;58.40;;;;;;6240692;28;20049;-81
2022/03/29 07:57:44;;;;;;;10.13;5.72;;;17.80;57.40;;;;;;6238259;28;20137;-79
2022/03/29 08:00:49;;;;;;;11.43;6.10;;;17.90;56.30;;;;;;6236772;28;20496;-80
2022/03/29 08:03:51;;;;;;;13.45;6.63;;;18.10;55.40;;;;;;6237548;28;20042;-80
2022/03/29 08:06:53;;;;;;;11.38;6.78;;;18.20;55.20;;;;;;6238210;28;20083;-81
2022/03/29 08:09:55;;;;;;;13.90;6.97;;;18.40;54.70;;;;;;6237253;28;20129;-80
2022/03/29 08:13:00;;;;;;;16.08;6.70;;;18.60;53.80;;;;;;6227307;28;20503;-79
2022/03/29 08:16:02;;;;;;;24.48;7.38;;;18.80;53.80;;;;;;6231930;28;20085;-80
2022/03/29 08:19:04;;;;;;;14.82;7.53;;;19.10;53.10;;;;;;6230520;28;20084;-81
2022/03/29 08:22:06;;;;;;;35.78;10.65;;;19.50;52.20;;;;;;6231245;28;20423;-81
2022/03/29 08:25:09;;;;;;;18.05;7.97;;;19.70;51.20;;;;;;6221954;28;20066;-79
2022/03/29 08:28:13;;;;;;;20.27;8.25;;;19.90;50.40;;;;;;6204849;28;20058;-79
2022/03/29 08:31:15;;;;;;;16.95;8.93;;;20.00;49.50;;;;;;6201863;28;20133;-81
2022/03/29 08:34:18;;;;;;;14.82;8.18;;;20.30;49.60;;;;;;6219164;28;20050;-82
2022/03/29 08:37:20;;;;;;;23.55;7.82;;;20.60;49.20;;;;;;6228221;28;20132;-81
2022/03/29 08:40:26;;;;;;;22.77;8.98;;;20.70;48.00;;;;;;6234435;28;20042;-79
2022/03/29 08:43:30;;;;;;;19.13;10.65;;;20.80;47.60;;;;;;6232209;28;20046;-79
2022/03/29 08:46:35;;;;;;;25.40;11.60;;;20.80;47.00;;;;;;6231939;28;20080;-80
2022/03/29 08:49:38;;;;;;;31.17;13.15;;;20.70;46.30;;;;;;6230709;28;20052;-81
2022/03/29 08:52:41;;;;;;;32.40;13.90;;;20.80;45.60;;;;;;6226311;28;20046;-81
2022/03/29 08:55:44;;;;;;;22.10;11.30;;;20.80;44.70;;;;;;6229785;28;20056;-80
2022/03/29 08:58:47;;;;;;;28.83;13.02;;;21.00;44.40;;;;;;6229427;28;20130;-81
2022/03/29 09:01:49;;;;;;;29.08;13.35;;;21.20;43.20;;;;;;6228481;28;20046;-80
2022/03/29 09:05:07;;;;;;;27.80;13.77;;;21.50;42.50;;;;;;6231565;28;20360;-82
2022/03/29 09:08:11;;;;;;;30.83;13.10;;;22.00;41.60;;;;;;6231061;28;20058;-80
2022/03/29 09:11:14;;;;;;;29.50;13.48;;;22.40;40.90;;;;;;6205592;28;20061;-80
2022/03/29 09:14:17;;;;;;;27.48;13.18;;;22.60;40.50;;;;;;6220209;28;20069;-82
2022/03/29 09:17:30;;;;;;;24.20;12.45;;;22.60;40.30;;;;;;6227725;28;20454;-82
2022/03/29 09:20:32;;;;;;;31.50;14.50;;;22.50;40.30;;;;;;6227339;28;20100;-81
2022/03/29 09:23:34;;;;;;;26.73;13.68;;;22.50;40.60;;;;;;6229814;28;20053;-79
2022/03/29 09:26:39;;;;;;;26.35;13.30;;;22.40;40.40;;;;;;6227012;28;20046;-82
2022/03/29 09:29:42;;;;;;;28.23;12.32;;;22.30;40.50;;;;;;6229117;28;20124;-80
2022/03/29 09:32:56;;;;;;;33.10;14.13;;;22.30;40.90;;;;;;6233086;28;20061;-78
2022/03/29 09:36:00;;;;;;;24.60;12.23;;;22.30;41.20;;;;;;6243304;28;20057;-80
2022/03/29 09:39:02;;;;;;;25.48;14.20;;;22.30;40.70;;;;;;6250334;28;20056;-79
2022/03/29 09:42:06;;;;;;;28.27;14.00;;;22.30;40.80;;;;;;6232321;28;20547;-79
2022/03/29 09:45:10;;;;;;;29.50;14.73;;;22.20;40.10;;;;;;6230154;28;20069;-82
2022/03/29 09:48:32;;;;;;;29.60;13.45;;;22.10;40.20;;;;;;6229055;28;20764;-79
2022/03/29 09:51:34;;;;;;;30.85;13.85;;;22.20;40.50;;;;;;6232910;28;20049;-82
2022/03/29 09:54:36;;;;;;;28.00;12.95;;;22.10;40.10;;;;;;6231365;28;20524;-79
2022/03/29 09:57:38;;;;;;;29.27;14.52;;;22.10;39.80;;;;;;6230721;28;20060;-80
2022/03/29 10:00:43;;;;;;;22.70;11.32;;;22.20;38.60;;;;;;6235426;28;20060;-80
2022/03/29 10:03:45;;;;;;;22.63;11.95;;;22.50;37.50;;;;;;6233829;28;20046;-80
2022/03/29 10:06:48;;;;;;;31.23;11.68;;;22.80;37.10;;;;;;6247605;28;20045;-78
2022/03/29 10:09:50;;;;;;;23.95;11.77;;;23.10;36.50;;;;;;6258347;28;20045;-79
2022/03/29 10:12:52;;;;;;;24.23;10.50;;;23.40;35.90;;;;;;6259281;28;20056;-82
2022/03/29 10:15:56;;;;;;;18.08;9.70;;;23.80;34.90;;;;;;6260040;28;20118;-80
2022/03/29 10:18:58;;;;;;;24.52;12.05;;;24.00;34.10;;;;;;6256876;28;20049;-80
2022/03/29 10:22:01;;;;;;;22.20;10.77;;;24.40;33.40;;;;;;6254472;28;20084;-81
2022/03/29 10:25:04;;;;;;;22.20;10.38;;;24.70;33.10;;;;;;6255599;28;20045;-82
2022/03/29 10:28:06;;;;;;;24.25;11.40;;;25.10;33.40;;;;;;6249375;28;20053;-81
2022/03/29 10:31:36;;;;;;;15.68;9.10;;;25.30;33.20;;;;;;6251698;28;20053;-79
2022/03/29 10:34:42;;;;;;;19.08;10.27;;;25.40;32.70;;;;;;6245496;28;20060;-82
2022/03/29 10:37:55;;;;;;;17.77;9.27;;;25.60;32.60;;;;;;6241252;28;20056;-82
2022/03/29 10:40:57;;;;;;;16.75;8.82;;;25.60;31.40;;;;;;6236049;28;20504;-82
2022/03/29 10:44:01;;;;;;;16.17;9.50;;;25.30;31.90;;;;;;6229190;28;20042;-82
2022/03/29 10:47:25;;;;;;;19.27;8.80;;;25.10;32.90;;;;;;6227235;28;20049;-81
2022/03/29 10:50:57;;;;;;;14.77;8.65;;;25.10;31.30;;;;;;6223923;28;20530;-84
2022/03/29 10:54:24;;;;;;;18.40;9.80;;;25.30;30.90;;;;;;6226401;28;20100;-84
2022/03/29 10:57:28;;;;;;;22.75;10.43;;;25.50;30.00;;;;;;6225343;28;20101;-82
2022/03/29 11:00:31;;;;;;;22.33;9.98;;;25.60;31.60;;;;;;6225428;28;20060;-82
2022/03/29 11:03:36;;;;;;;22.90;9.45;;;25.70;31.20;;;;;;6227873;28;20042;-81
2022/03/29 11:07:11;;;;;;;26.42;10.30;;;25.60;30.70;;;;;;6232521;28;20046;-80
2022/03/29 11:10:14;;;;;;;23.17;10.32;;;25.60;30.90;;;;;;6250369;28;20108;-81
2022/03/29 11:13:25;;;;;;;24.15;11.35;;;25.70;31.00;;;;;;6252702;28;20495;-81
2022/03/29 11:16:31;;;;;;;20.55;9.40;;;25.90;30.80;;;;;;6252984;28;20126;-82
2022/03/29 11:19:44;;;;;;;21.17;9.25;;;25.90;30.50;;;;;;6257917;28;20062;-83
2022/03/29 11:22:46;;;;;;;19.23;8.70;;;26.10;30.40;;;;;;6257114;28;20061;-82
2022/03/29 11:25:47;;;;;;;16.15;8.75;;;26.30;30.10;;;;;;6264880;28;20626;-80
2022/03/29 11:28:54;;;;;;;18.15;8.95;;;26.40;29.90;;;;;;6266178;28;20069;-81
2022/03/29 11:31:57;;;;;;;17.13;8.82;;;26.30;29.50;;;;;;6262852;28;20170;-80
2022/03/29 11:35:00;;;;;;;14.98;8.02;;;26.40;30.00;;;;;;6263015;28;20084;-80
2022/03/29 11:38:10;;;;;;;17.38;8.15;;;26.30;29.30;;;;;;6261918;28;20045;-80
2022/03/29 11:41:21;;;;;;;21.42;9.57;;;26.40;28.90;;;;;;6249585;28;20211;-82
2022/03/29 11:44:26;;;;;;;20.23;9.93;;;26.30;28.50;;;;;;6230484;28;20053;-81
2022/03/29 11:47:27;;;;;;;19.33;8.70;;;26.20;29.60;;;;;;6231133;28;20053;-85
2022/03/29 11:50:32;;;;;;;16.90;8.77;;;26.10;29.50;;;;;;6229534;28;20050;-82
2022/03/29 11:53:36;;;;;;;21.13;10.23;;;26.10;29.10;;;;;;6235054;28;20073;-80
2022/03/29 11:56:39;;;;;;;19.50;9.45;;;26.10;29.30;;;;;;6239178;28;20062;-81
2022/03/29 11:59:42;;;;;;;17.35;9.45;;;26.10;29.70;;;;;;6233004;28;20042;-82
2022/03/29 12:02:44;;;;;;;14.20;7.78;;;26.20;29.70;;;;;;6232225;28;20038;-83
2022/03/29 12:05:48;;;;;;;15.88;7.90;;;26.20;28.10;;;;;;6244300;28;20077;-83
2022/03/29 12:08:54;;;;;;;14.98;7.68;;;26.10;28.20;;;;;;6236296;28;20528;-80
2022/03/29 12:11:59;;;;;;;15.00;8.25;;;26.20;28.60;;;;;;6228548;28;20081;-80
2022/03/29 12:15:02;;;;;;;20.98;7.85;;;26.40;27.50;;;;;;6229919;28;20050;-82
2022/03/29 12:21:26;;;;;;;20.02;9.40;;;26.70;27.20;;;;;;6207615;28;20050;-82
2022/03/29 12:24:30;;;;;;;14.57;8.35;;;26.70;27.10;;;;;;6209216;28;20058;-84
2022/03/29 12:27:32;;;;;;;17.08;8.57;;;26.50;27.70;;;;;;6226039;28;20050;-83
2022/03/29 12:30:34;;;;;;;22.40;11.00;;;26.50;27.90;;;;;;6233063;28;20388;-82
2022/03/29 12:33:38;;;;;;;16.85;7.53;;;26.50;27.90;;;;;;6233552;28;20046;-84
2022/03/29 12:36:42;;;;;;;14.55;7.75;;;26.50;27.60;;;;;;6245345;28;20105;-85
2022/03/29 12:39:45;;;;;;;15.10;6.47;;;26.40;26.70;;;;;;6253967;28;20056;-84
2022/03/29 12:42:47;;;;;;;14.90;7.50;;;26.30;26.10;;;;;;6250283;28;20038;-85
2022/03/29 12:45:50;;;;;;;22.13;9.77;;;26.20;26.70;;;;;;6232625;28;20496;-84
2022/03/29 12:48:51;;;;;;;18.63;10.23;;;26.00;26.70;;;;;;6231893;28;20490;-84
2022/03/29 12:51:56;;;;;;;20.40;9.93;;;25.90;27.00;;;;;;6229426;28;20579;-82
2022/03/29 12:55:01;;;;;;;38.00;16.38;;;25.80;27.10;;;;;;6228065;28;20049;-84
2022/03/29 12:58:05;;;;;;;17.40;9.02;;;25.60;27.30;;;;;;6231092;28;20046;-83
2022/03/29 13:01:08;;;;;;;19.98;7.50;;;25.50;27.70;;;;;;6231949;28;20053;-85
2022/03/29 13:04:10;;;;;;;18.15;7.07;;;25.50;27.10;;;;;;6231408;28;20052;-84
2022/03/29 13:07:32;;;;;;;15.68;8.20;;;25.50;27.80;;;;;;6245898;28;20129;-85
2022/03/29 13:10:35;;;;;;;13.52;7.57;;;25.50;27.20;;;;;;6255671;28;20076;-84
2022/03/29 13:13:40;;;;;;;11.25;6.30;;;25.50;27.10;;;;;;6254509;28;20506;-84
2022/03/29 13:16:52;;;;;;;17.17;7.43;;;25.60;27.30;;;;;;6263484;28;20059;-85
2022/03/29 13:19:55;;;;;;;16.23;6.88;;;25.70;27.10;;;;;;6260496;28;20049;-87
2022/03/29 13:22:58;;;;;;;14.30;6.60;;;25.70;27.00;;;;;;6256715;28;20125;-84
2022/03/29 13:26:00;;;;;;;12.98;7.05;;;25.70;26.90;;;;;;6254540;28;20045;-83
2022/03/29 13:29:02;;;;;;;14.82;6.90;;;25.70;27.10;;;;;;6255062;28;20054;-84
2022/03/29 13:32:08;;;;;;;10.93;6.00;;;25.80;26.80;;;;;;6254929;28;20049;-84
2022/03/29 13:35:10;;;;;;;14.85;7.03;;;25.80;26.70;;;;;;6247563;28;20475;-82
2022/03/29 13:38:13;;;;;;;11.52;6.00;;;25.80;26.80;;;;;;6243664;28;20125;-84
2022/03/29 13:41:16;;;;;;;14.90;8.20;;;25.90;26.50;;;;;;6253960;28;20056;-87
2022/03/29 13:44:18;;;;;;;16.13;6.90;;;25.90;26.50;;;;;;6246988;28;20038;-84
2022/03/29 13:47:19;;;;;;;11.43;5.82;;;26.00;26.70;;;;;;6228325;28;20504;-83
2022/03/29 13:50:21;;;;;;;10.48;5.75;;;26.00;26.80;;;;;;6210478;28;20046;-84
2022/03/29 13:53:24;;;;;;;12.70;4.75;;;26.00;26.40;;;;;;6213724;28;20046;-83
2022/03/29 13:56:31;;;;;;;9.57;5.75;;;26.00;26.30;;;;;;6226178;28;20053;-83
2022/03/29 13:59:33;;;;;;;9.10;5.63;;;26.00;26.40;;;;;;6226834;28;20046;-83
2022/03/29 14:02:35;;;;;;;11.23;6.30;;;25.90;26.20;;;;;;6227340;28;20496;-83
2022/03/29 14:05:40;;;;;;;8.48;5.78;;;25.90;26.30;;;;;;6230795;28;20097;-83
2022/03/29 14:08:43;;;;;;;19.65;7.38;;;25.90;26.70;;;;;;6246088;28;20057;-82
2022/03/29 14:11:45;;;;;;;13.88;6.47;;;26.00;26.40;;;;;;6254199;28;20053;-82
2022/03/29 14:14:47;;;;;;;12.90;5.90;;;26.00;26.30;;;;;;6251336;28;20098;-82
2022/03/29 14:17:48;;;;;;;25.70;20.48;;;26.10;25.70;;;;;;6251474;28;20041;-82
2022/03/29 14:20:52;;;;;;;17.98;7.05;;;26.10;26.00;;;;;;6251789;28;20123;-81
2022/03/29 14:23:56;;;;;;;27.58;11.40;;;26.20;26.00;;;;;;6252542;28;20415;-83
2022/03/29 14:27:00;;;;;;;28.33;19.33;;;26.30;25.90;;;;;;6253526;28;20111;-82
2022/03/29 14:30:02;;;;;;;16.52;7.78;;;26.20;25.70;;;;;;6255688;28;20072;-86
2022/03/29 14:33:04;;;;;;;13.10;6.68;;;26.20;25.90;;;;;;6257555;28;20045;-84
2022/03/29 14:36:06;;;;;;;16.17;7.90;;;26.10;25.90;;;;;;6247561;28;20053;-84
2022/03/29 14:39:10;;;;;;;12.25;7.85;;;26.00;25.80;;;;;;6260323;28;20141;-84
2022/03/29 14:42:12;;;;;;;12.63;5.93;;;25.90;25.90;;;;;;6238660;28;20054;-84
2022/03/29 14:45:14;;;;;;;12.95;5.25;;;25.80;25.80;;;;;;6226473;28;20500;-84
2022/03/29 14:48:16;;;;;;;15.23;5.68;;;25.60;25.90;;;;;;6226652;28;20050;-84
2022/03/29 14:51:18;;;;;;;18.25;6.43;;;25.50;26.00;;;;;;6203746;28;20433;-82
2022/03/29 14:54:22;;;;;;;14.70;5.90;;;25.30;25.70;;;;;;6224122;28;20038;-84
2022/03/29 14:57:23;;;;;;;10.88;5.57;;;25.20;25.90;;;;;;6232662;28;20053;-86
2022/03/29 15:00:26;;;;;;;16.83;5.93;;;25.00;26.20;;;;;;6234520;28;20061;-84
2022/03/29 15:03:27;;;;;;;25.88;12.52;;;24.80;26.70;;;;;;6235431;28;20050;-85
2022/03/29 15:06:30;;;;;;;19.15;9.80;;;24.70;27.70;;;;;;6212366;28;20078;-84
2022/03/29 15:09:33;;;;;;;17.08;8.32;;;24.50;26.80;;;;;;6209301;28;20050;-84
2022/03/29 15:12:35;;;;;;;14.18;5.80;;;24.30;27.30;;;;;;6208260;28;20054;-83
2022/03/29 15:15:37;;;;;;;16.80;6.93;;;24.20;27.60;;;;;;6208116;28;20140;-85
2022/03/29 15:18:39;;;;;;;13.85;5.93;;;24.10;27.90;;;;;;6207081;28;20046;-86
2022/03/29 15:21:41;;;;;;;21.75;7.55;;;24.00;28.10;;;;;;6207954;28;20526;-85
2022/03/29 15:24:51;;;;;;;24.17;8.05;;;23.90;28.30;;;;;;6208615;28;20051;-83
2022/03/29 15:27:56;;;;;;;15.77;6.68;;;23.80;28.30;;;;;;6209508;28;20050;-84
2022/03/29 15:31:00;;;;;;;11.95;6.60;;;23.70;28.50;;;;;;6211071;28;20057;-84
2022/03/29 15:34:02;;;;;;;17.70;8.75;;;23.60;28.50;;;;;;6218161;28;20070;-83
2022/03/29 15:37:06;;;;;;;21.85;8.55;;;23.50;29.40;;;;;;6257085;28;20092;-83
2022/03/29 15:40:11;;;;;;;16.70;7.85;;;23.30;29.30;;;;;;6261520;28;20454;-85
2022/03/29 15:43:14;;;;;;;18.10;9.13;;;23.10;29.50;;;;;;6261529;28;20140;-84
2022/03/29 15:46:17;;;;;;;18.60;8.27;;;22.70;29.70;;;;;;6241964;28;20056;-84
2022/03/29 15:49:19;;;;;;;22.40;8.75;;;22.30;30.00;;;;;;6235317;28;20171;-85
2022/03/29 15:52:25;;;;;;;24.75;8.95;;;22.00;30.70;;;;;;6235628;28;20137;-84
2022/03/29 15:55:30;;;;;;;24.70;9.38;;;21.70;31.00;;;;;;6233164;28;20050;-82
2022/03/29 15:58:32;;;;;;;22.75;9.35;;;21.70;31.80;;;;;;6233529;28;20115;-82
2022/03/29 16:01:34;;;;;;;19.75;9.18;;;21.60;31.50;;;;;;6234018;28;20045;-83
2022/03/29 16:04:37;;;;;;;20.75;9.55;;;21.60;32.00;;;;;;6234416;28;20123;-84
2022/03/29 16:07:40;;;;;;;17.77;8.52;;;21.50;32.40;;;;;;6243320;28;20050;-84
2022/03/29 16:10:43;;;;;;;17.92;8.77;;;21.30;32.20;;;;;;6258845;28;20063;-85
2022/03/29 16:13:46;;;;;;;20.73;8.75;;;21.10;32.20;;;;;;6259953;28;20072;-84
2022/03/29 16:16:49;;;;;;;23.38;9.43;;;20.90;32.40;;;;;;6243397;28;20046;-84
2022/03/29 16:19:51;;;;;;;23.33;9.98;;;20.90;32.80;;;;;;6237033;28;20061;-84
2022/03/29 16:22:54;;;;;;;16.13;9.95;;;20.90;32.80;;;;;;6235753;28;20659;-84
2022/03/29 16:25:59;;;;;;;17.05;9.02;;;20.90;32.90;;;;;;6232937;28;20053;-81
2022/03/29 16:29:03;;;;;;;27.70;9.23;;;20.90;33.10;;;;;;6239621;28;20105;-84
2022/03/29 16:32:07;;;;;;;20.52;9.07;;;20.80;33.10;;;;;;6257929;28;20056;-86
2022/03/29 16:35:10;;;;;;;20.40;9.10;;;20.80;33.40;;;;;;6247993;28;20121;-82
2022/03/29 16:38:13;;;;;;;19.80;8.43;;;20.80;33.60;;;;;;6247629;28;20055;-84
2022/03/29 16:41:18;;;;;;;22.45;9.57;;;20.70;33.70;;;;;;6257262;28;20045;-84
2022/03/29 16:44:21;;;;;;;17.70;8.82;;;20.70;34.00;;;;;;6257336;28;20045;-84
2022/03/29 16:47:24;;;;;;;20.02;10.25;;;20.60;34.10;;;;;;6241631;28;20045;-85
2022/03/29 16:50:28;;;;;;;23.77;10.75;;;20.40;34.50;;;;;;6235594;28;20069;-85
2022/03/29 16:53:31;;;;;;;22.00;11.30;;;20.30;34.50;;;;;;6238196;28;20060;-83
2022/03/29 16:56:36;;;;;;;21.65;10.35;;;20.10;34.70;;;;;;6234640;28;20057;-86
2022/03/29 16:59:38;;;;;;;20.30;9.88;;;20.00;35.20;;;;;;6240034;28;20060;-86
2022/03/29 17:02:40;;;;;;;23.77;9.45;;;20.00;35.40;;;;;;6255728;28;20547;-82
2022/03/29 17:05:42;;;;;;;33.38;10.25;;;19.90;35.70;;;;;;6255505;28;20077;-86
2022/03/29 17:08:48;;;;;;;25.50;11.00;;;19.70;35.90;;;;;;6252188;28;20622;-86
2022/03/29 17:11:54;;;;;;;21.88;10.10;;;19.70;36.40;;;;;;6259245;28;20076;-85
2022/03/29 17:14:56;;;;;;;28.90;11.95;;;19.60;37.50;;;;;;6255336;28;20101;-87
2022/03/29 17:17:59;;;;;;;27.63;10.98;;;19.50;37.40;;;;;;6256746;28;20057;-87
2022/03/29 17:21:01;;;;;;;34.15;13.52;;;19.30;38.00;;;;;;6256002;28;20049;-85
2022/03/29 17:24:04;;;;;;;24.95;12.07;;;19.10;38.50;;;;;;6258793;28;20041;-86
2022/03/29 17:27:08;;;;;;;32.13;14.10;;;19.10;39.00;;;;;;6234024;28;20400;-86
2022/03/29 17:30:11;;;;;;;31.55;13.18;;;19.00;39.60;;;;;;6252064;28;20391;-84
2022/03/29 17:33:13;;;;;;;44.05;19.60;;;18.90;40.60;;;;;;6259350;28;20167;-84
2022/03/29 17:36:15;;;;;;;39.17;14.25;;;18.80;41.50;;;;;;6246745;28;20073;-83
2022/03/29 17:39:17;;;;;;;39.47;20.30;;;18.60;42.20;;;;;;6256111;28;20053;-85
2022/03/29 17:42:20;;;;;;;59.80;32.90;;;18.50;42.90;;;;;;6256579;28;20045;-85
2022/03/29 17:45:22;;;;;;;79.03;53.30;;;18.40;43.40;;;;;;6259164;28;20052;-82
2022/03/29 17:48:24;;;;;;;40.22;15.43;;;18.30;44.00;;;;;;6238845;28;20116;-83
2022/03/29 17:51:26;;;;;;;32.90;13.15;;;18.20;44.40;;;;;;6234972;28;20081;-84
2022/03/29 17:54:28;;;;;;;37.00;14.05;;;18.10;45.00;;;;;;6243766;28;20041;-82
2022/03/29 17:57:31;;;;;;;31.20;12.90;;;18.00;45.40;;;;;;6235204;28;20046;-82
2022/03/29 18:00:34;;;;;;;36.47;14.50;;;17.90;46.10;;;;;;6233858;28;20468;-84
2022/03/29 18:03:36;;;;;;;36.30;13.98;;;17.70;46.70;;;;;;6231929;28;20097;-84
2022/03/29 18:06:38;;;;;;;37.15;12.45;;;17.70;46.80;;;;;;6242028;28;20149;-83
2022/03/29 18:09:40;;;;;;;34.25;14.55;;;17.60;46.90;;;;;;6257677;28;20042;-85
2022/03/29 18:12:43;;;;;;;35.63;14.55;;;17.60;47.10;;;;;;6257742;28;20129;-84
2022/03/29 18:15:45;;;;;;;32.50;13.10;;;17.60;47.30;;;;;;6258886;28;20392;-83
2022/03/29 18:18:47;;;;;;;39.90;14.88;;;17.60;47.30;;;;;;6253369;28;20507;-83
2022/03/29 18:21:48;;;;;;;36.05;13.63;;;17.50;47.70;;;;;;6233012;28;20135;-83
2022/03/29 18:24:50;;;;;;;40.00;15.60;;;17.50;48.00;;;;;;6230997;28;20736;-84
2022/03/29 18:27:53;;;;;;;36.67;13.02;;;17.50;48.40;;;;;;6234734;28;20052;-84
2022/03/29 18:30:55;;;;;;;34.30;14.13;;;17.40;48.70;;;;;;6235436;28;20055;-84
2022/03/29 18:33:57;;;;;;;29.42;13.98;;;17.30;48.90;;;;;;6235520;28;20140;-83
2022/03/29 18:36:59;;;;;;;30.98;14.30;;;17.30;49.30;;;;;;6246096;28;20119;-83
2022/03/29 18:40:01;;;;;;;33.47;13.27;;;17.30;49.50;;;;;;6256935;28;20057;-84
2022/03/29 18:43:04;;;;;;;27.60;11.57;;;17.30;49.40;;;;;;6258630;28;20566;-84
2022/03/29 18:46:06;;;;;;;29.35;12.10;;;17.30;49.60;;;;;;6261738;28;20053;-82
2022/03/29 18:49:10;;;;;;;29.55;12.90;;;17.30;49.80;;;;;;6252257;28;20046;-83
2022/03/29 18:52:11;;;;;;;29.13;11.95;;;17.30;50.00;;;;;;6233068;28;20042;-84
2022/03/29 18:55:14;;;;;;;24.92;12.02;;;17.30;50.00;;;;;;6233241;28;20056;-84
2022/03/29 18:58:18;;;;;;;35.25;11.13;;;17.20;50.10;;;;;;6233552;28;20048;-83
2022/03/29 19:01:20;;;;;;;27.80;12.18;;;17.30;50.40;;;;;;6233917;28;20042;-84
2022/03/29 19:04:22;;;;;;;25.17;11.07;;;17.20;50.80;;;;;;6227576;28;20137;-83
2022/03/29 19:07:24;;;;;;;26.02;11.25;;;17.10;51.00;;;;;;6252036;28;20049;-84
2022/03/29 19:10:26;;;;;;;26.50;10.77;;;17.00;51.20;;;;;;6260882;28;20049;-83
2022/03/29 19:13:29;;;;;;;23.30;9.90;;;17.00;51.60;;;;;;6259894;28;20137;-84
2022/03/29 19:16:30;;;;;;;23.83;9.88;;;16.90;51.60;;;;;;6238182;28;20045;-83
2022/03/29 19:19:33;;;;;;;23.98;11.43;;;16.90;52.00;;;;;;6235248;28;20053;-84
2022/03/29 19:22:35;;;;;;;25.38;10.57;;;16.90;52.10;;;;;;6236498;28;20121;-82
2022/03/29 19:25:40;;;;;;;22.75;10.65;;;16.80;52.10;;;;;;6235748;28;20054;-82